Time,TemperatureF,DewpointF,PressureIn,WindDirection,WindDirectionDegrees,WindSpeedMPH,WindSpeedGustMPH,Humidity,HourlyPrecipIn,Conditions,Clouds,dailyrainin,SolarRadiationWatts/m^2,SoftwareType,DateUTC
2013-08-05 00:02:00,61.0,61.0,-100.00,SE,142,2.0,3.0,99,0.00,,,0.12,0.000000,,2013-08-05 04:02:00,
2013-08-05 00:12:00,61.0,61.0,-100.00,SE,142,2.0,3.0,99,0.00,,,0.12,0.000000,,2013-08-05 04:12:00,
2013-08-05 00:43:00,62.0,62.0,-100.00,SE,140,1.0,3.0,99,0.00,,,0.01,0.000000,,2013-08-05 04:43:00,
2013-08-05 00:52:00,62.0,62.0,-100.00,SE,140,1.0,3.0,99,0.00,,,0.01,0.000000,,2013-08-05 04:52:00,
2013-08-05 01:02:00,62.0,62.0,-100.00,SE,140,1.0,3.0,99,0.00,,,0.01,0.000000,,2013-08-05 05:02:00,
2013-08-05 01:12:00,62.0,62.0,-100.00,SE,140,1.0,3.0,99,0.00,,,0.01,0.000000,,2013-08-05 05:12:00,
2013-08-05 01:43:00,61.0,61.0,-100.00,ESE,114,2.0,3.0,99,0.00,,,0.01,0.000000,,2013-08-05 05:43:00,
2013-08-05 01:53:00,61.0,61.0,-100.00,ESE,114,2.0,3.0,99,0.00,,,0.01,0.000000,,2013-08-05 05:53:00,
2013-08-05 02:02:00,61.0,61.0,-100.00,ESE,114,2.0,3.0,99,0.00,,,0.01,0.000000,,2013-08-05 06:02:00,
2013-08-05 02:12:00,61.0,61.0,-100.00,ESE,114,2.0,3.0,99,0.00,,,0.01,0.000000,,2013-08-05 06:12:00,
2013-08-05 02:43:00,61.0,61.0,-100.00,ESE,106,1.0,4.0,100,0.00,,,0.00,0.000000,,2013-08-05 06:43:00,
2013-08-05 02:52:00,61.0,61.0,-100.00,ESE,106,1.0,4.0,100,0.00,,,0.00,0.000000,,2013-08-05 06:52:00,
2013-08-05 03:02:00,61.0,61.0,-100.00,ESE,106,1.0,4.0,100,0.00,,,0.00,0.000000,,2013-08-05 07:02:00,
2013-08-05 03:12:00,61.0,61.0,-100.00,ESE,106,1.0,4.0,100,0.00,,,0.00,0.000000,,2013-08-05 07:12:00,
2013-08-05 03:43:00,60.0,60.0,-100.00,WSW,242,2.0,4.0,100,0.00,,,0.00,0.000000,,2013-08-05 07:43:00,
2013-08-05 03:53:00,60.0,60.0,-100.00,WSW,242,2.0,4.0,100,0.00,,,0.00,0.000000,,2013-08-05 07:53:00,
2013-08-05 04:02:00,60.0,60.0,-100.00,WSW,242,2.0,4.0,100,0.00,,,0.00,0.000000,,2013-08-05 08:02:00,
2013-08-05 04:12:00,60.0,60.0,-100.00,WSW,242,2.0,4.0,100,0.00,,,0.00,0.000000,,2013-08-05 08:12:00,
2013-08-05 04:53:00,60.0,60.0,-100.00,NE,51,1.0,5.0,100,0.00,,,0.00,0.000000,,2013-08-05 08:53:00,
2013-08-05 05:06:00,60.0,60.0,-100.00,NE,51,1.0,5.0,100,0.00,,,0.00,0.000000,,2013-08-05 09:06:00,
2013-08-05 05:49:00,60.0,60.0,-100.00,NW,322,2.0,4.0,100,0.00,,,0.00,0.000000,,2013-08-05 09:49:00,
2013-08-05 06:11:00,60.0,60.0,-100.00,NW,322,2.0,4.0,100,0.00,,,0.00,0.000000,,2013-08-05 10:11:00,
2013-08-05 06:50:00,59.0,59.0,-100.00,WNW,282,3.0,5.0,100,0.00,,,0.00,0.000000,,2013-08-05 10:50:00,
2013-08-05 07:09:00,59.0,59.0,-100.00,WNW,282,3.0,5.0,100,0.00,,,0.00,0.000000,,2013-08-05 11:09:00,
2013-08-05 07:17:00,58.0,58.0,-100.00,WSW,257,3.0,4.0,100,0.00,,,0.00,4.000000,,2013-08-05 11:17:00,
2013-08-05 07:54:00,58.0,58.0,-100.00,WSW,257,3.0,4.0,100,0.00,,,0.00,4.000000,,2013-08-05 11:54:00,
2013-08-05 08:08:00,58.0,58.0,-100.00,WSW,257,3.0,4.0,100,0.00,,,0.00,4.000000,,2013-08-05 12:08:00,
2013-08-05 08:52:00,60.0,60.0,-100.00,West,266,2.0,4.0,100,0.00,,,0.00,42.000000,,2013-08-05 12:52:00,
2013-08-05 09:02:00,60.0,60.0,-100.00,West,266,2.0,4.0,100,0.00,,,0.00,42.000000,,2013-08-05 13:02:00,
2013-08-05 09:14:00,60.0,60.0,-100.00,West,266,2.0,4.0,100,0.00,,,0.00,42.000000,,2013-08-05 13:14:00,
2013-08-05 09:17:00,62.0,61.0,-100.00,West,262,2.0,4.0,96,0.00,,,0.00,96.000000,,2013-08-05 13:17:00,
2013-08-05 09:47:00,62.0,61.0,-100.00,West,262,2.0,4.0,96,0.00,,,0.00,96.000000,,2013-08-05 13:47:00,
2013-08-05 09:54:00,62.0,61.0,-100.00,West,262,2.0,4.0,96,0.00,,,0.00,96.000000,,2013-08-05 13:54:00,
2013-08-05 10:06:00,62.0,61.0,-100.00,West,262,2.0,4.0,96,0.00,,,0.00,96.000000,,2013-08-05 14:06:00,
2013-08-05 10:49:00,68.0,64.0,-100.00,SE,126,2.0,4.0,86,0.00,,,0.00,282.000000,,2013-08-05 14:49:00,
2013-08-05 11:07:00,68.0,64.0,-100.00,SE,126,2.0,4.0,86,0.00,,,0.00,282.000000,,2013-08-05 15:07:00,
2013-08-05 11:15:00,68.0,64.0,-100.00,SE,126,2.0,4.0,86,0.00,,,0.00,282.000000,,2013-08-05 15:15:00,
2013-08-05 11:17:00,74.0,65.0,-100.00,SSE,165,3.0,5.0,74,0.00,,,0.00,480.000000,,2013-08-05 15:17:00,
2013-08-05 12:45:00,75.0,60.0,-100.00,East,96,2.0,6.0,60,0.00,,,0.00,590.000000,,2013-08-05 16:45:00,
2013-08-05 13:00:00,75.0,60.0,-100.00,East,96,2.0,6.0,60,0.00,,,0.00,590.000000,,2013-08-05 17:00:00,
2013-08-05 13:07:00,75.0,60.0,-100.00,East,96,2.0,6.0,60,0.00,,,0.00,590.000000,,2013-08-05 17:07:00,
2013-08-05 13:16:00,75.0,60.0,-100.00,East,96,2.0,6.0,60,0.00,,,0.00,590.000000,,2013-08-05 17:16:00,
2013-08-05 13:50:00,76.0,65.0,-100.00,SSE,151,4.0,8.0,68,0.00,,,0.00,459.000000,,2013-08-05 17:50:00,
2013-08-05 14:00:00,76.0,65.0,-100.00,SSE,151,4.0,8.0,68,0.00,,,0.00,459.000000,,2013-08-05 18:00:00,
2013-08-05 14:08:00,76.0,65.0,-100.00,SSE,151,4.0,8.0,68,0.00,,,0.00,459.000000,,2013-08-05 18:08:00,
2013-08-05 14:13:00,76.0,65.0,-100.00,SSE,151,4.0,8.0,68,0.00,,,0.00,459.000000,,2013-08-05 18:13:00,
2013-08-05 14:54:00,76.0,58.0,-100.00,SE,141,3.0,9.0,54,0.00,,,0.00,584.000000,,2013-08-05 18:54:00,
2013-08-05 15:05:00,76.0,58.0,-100.00,SE,141,3.0,9.0,54,0.00,,,0.00,584.000000,,2013-08-05 19:05:00,
2013-08-05 15:14:00,76.0,58.0,-100.00,SE,141,3.0,9.0,54,0.00,,,0.00,584.000000,,2013-08-05 19:14:00,
2013-08-05 15:54:00,82.0,67.0,-100.00,SW,229,3.0,7.0,61,0.00,,,0.00,634.000000,,2013-08-05 19:54:00,
2013-08-05 16:09:00,82.0,67.0,-100.00,SW,229,3.0,7.0,61,0.00,,,0.00,634.000000,,2013-08-05 20:09:00,
2013-08-05 16:15:00,82.0,67.0,-100.00,SW,229,3.0,7.0,61,0.00,,,0.00,634.000000,,2013-08-05 20:15:00,
2013-08-05 16:48:00,80.0,62.0,-100.00,WSW,247,5.0,11.0,55,0.00,,,0.00,613.000000,,2013-08-05 20:48:00,
2013-08-05 17:02:00,80.0,62.0,-100.00,WSW,247,5.0,11.0,55,0.00,,,0.00,613.000000,,2013-08-05 21:02:00,
2013-08-05 17:09:00,80.0,62.0,-100.00,WSW,247,5.0,11.0,55,0.00,,,0.00,613.000000,,2013-08-05 21:09:00,
2013-08-05 19:46:00,73.0,66.0,-100.00,WSW,243,2.0,4.0,80,-99.99,,,0.00,188.000000,,2013-08-05 23:46:00,
2013-08-05 20:02:00,73.0,66.0,-100.00,WSW,243,2.0,4.0,80,-99.99,,,0.00,188.000000,,2013-08-06 00:02:00,
2013-08-05 20:15:00,73.0,66.0,-100.00,WSW,243,2.0,4.0,80,-99.99,,,0.00,188.000000,,2013-08-06 00:15:00,
2013-08-05 21:14:00,68.0,66.0,-100.00,SSW,196,2.0,5.0,92,0.00,,,0.00,31.000000,,2013-08-06 01:14:00,
2013-08-05 21:53:00,65.0,64.0,-100.00,SW,214,2.0,4.0,96,0.00,,,0.00,2.000000,,2013-08-06 01:53:00,
2013-08-05 22:02:00,65.0,64.0,-100.00,SW,214,2.0,4.0,96,0.00,,,0.00,2.000000,,2013-08-06 02:02:00,
2013-08-05 22:10:00,65.0,64.0,-100.00,SW,214,2.0,4.0,96,0.00,,,0.00,2.000000,,2013-08-06 02:10:00,
2013-08-05 22:15:00,65.0,64.0,-100.00,SW,214,2.0,4.0,96,0.00,,,0.00,2.000000,,2013-08-06 02:15:00,
2013-08-05 22:17:00,63.0,62.0,-100.00,SSE,153,2.0,3.0,98,0.00,,,0.00,0.000000,,2013-08-06 02:17:00,
2013-08-05 22:50:00,63.0,62.0,-100.00,SSE,153,2.0,3.0,98,0.00,,,0.00,0.000000,,2013-08-06 02:50:00,
2013-08-05 23:02:00,63.0,62.0,-100.00,SSE,153,2.0,3.0,98,0.00,,,0.00,0.000000,,2013-08-06 03:02:00,
2013-08-05 23:45:00,62.0,62.0,-100.00,SE,142,2.0,2.0,99,0.00,,,0.00,0.000000,,2013-08-06 03:45:00,
2013-08-05 23:52:00,62.0,62.0,-100.00,SE,142,2.0,2.0,99,0.00,,,0.00,0.000000,,2013-08-06 03:52:00,